createdAt,value
2019-03-19T00:01:28.249Z,11.00
2019-03-19T00:03:58.696Z,11.10
2019-03-19T00:06:29.201Z,8.93
2019-03-19T00:08:59.690Z,13.57
2019-03-19T00:11:30.168Z,12.77
2019-03-19T00:14:00.656Z,10.83
2019-03-19T00:16:31.113Z,14.67
2019-03-19T00:19:01.649Z,11.37
2019-03-19T00:21:34.657Z,17.23
2019-03-19T00:24:04.393Z,14.10
2019-03-19T00:26:34.850Z,13.60
2019-03-19T00:29:05.348Z,12.37
2019-03-19T00:31:35.805Z,14.53
2019-03-19T00:34:06.282Z,13.63
2019-03-19T00:36:36.761Z,18.10
2019-03-19T00:39:08.090Z,14.53
2019-03-19T00:41:38.560Z,14.07
2019-03-19T00:44:09.062Z,12.93
2019-03-19T00:46:39.520Z,16.57
2019-03-19T00:49:10.031Z,16.33
2019-03-19T00:51:40.583Z,17.13
2019-03-19T00:54:11.045Z,19.70
2019-03-19T00:56:41.480Z,17.53
2019-03-19T00:59:11.981Z,19.27
2019-03-19T01:01:42.449Z,21.07
2019-03-19T01:04:12.938Z,21.77
2019-03-19T01:06:43.414Z,22.13
2019-03-19T01:09:13.949Z,18.60
2019-03-19T01:11:44.410Z,19.87
2019-03-19T01:14:14.910Z,19.10
2019-03-19T01:16:45.405Z,17.57
2019-03-19T01:19:15.866Z,19.17
2019-03-19T01:21:46.465Z,23.70
2019-03-19T01:24:16.978Z,19.23
2019-03-19T01:26:47.443Z,19.73
2019-03-19T01:29:17.907Z,18.70
2019-03-19T01:31:48.402Z,20.60
2019-03-19T01:34:18.897Z,21.73
2019-03-19T01:36:49.368Z,23.17
2019-03-19T01:39:19.873Z,23.60
2019-03-19T01:41:50.342Z,24.03
2019-03-19T01:44:20.862Z,22.90
2019-03-19T01:46:51.370Z,22.73
2019-03-19T01:49:21.880Z,25.33
2019-03-19T01:51:52.386Z,25.13
2019-03-19T01:54:22.881Z,25.73
2019-03-19T01:56:53.380Z,22.27
2019-03-19T01:59:23.881Z,23.73
2019-03-19T02:01:54.343Z,22.13
2019-03-19T02:04:24.809Z,24.40
2019-03-19T02:06:55.277Z,27.17
2019-03-19T02:09:25.786Z,22.10
2019-03-19T02:11:56.287Z,26.30
2019-03-19T02:14:26.754Z,29.77
2019-03-19T02:16:57.262Z,26.37
2019-03-19T02:19:27.850Z,24.77
2019-03-19T02:21:58.349Z,24.17
2019-03-19T02:24:28.868Z,20.60
2019-03-19T02:26:59.322Z,25.30
2019-03-19T02:29:29.786Z,20.67
2019-03-19T02:32:00.296Z,22.20
2019-03-19T02:34:30.808Z,18.73
2019-03-19T02:37:01.302Z,21.20
2019-03-19T02:39:31.834Z,20.53
2019-03-19T02:42:02.279Z,21.03
2019-03-19T02:44:32.779Z,20.37
2019-03-19T02:47:03.263Z,19.63
2019-03-19T02:49:33.761Z,19.07
2019-03-19T02:52:04.283Z,18.90
2019-03-19T02:54:34.784Z,22.43
2019-03-19T02:57:05.363Z,25.23
2019-03-19T02:59:35.823Z,22.90
2019-03-19T03:02:06.331Z,25.33
2019-03-19T03:04:36.821Z,24.30
2019-03-19T03:07:07.339Z,29.07
2019-03-19T03:09:37.801Z,27.07
2019-03-19T03:12:08.274Z,23.77
2019-03-19T03:14:38.807Z,26.03
2019-03-19T03:17:09.266Z,30.60
2019-03-19T03:19:39.791Z,35.83
2019-03-19T03:22:10.266Z,29.60
2019-03-19T03:24:40.829Z,33.37
2019-03-19T03:27:11.299Z,25.37
2019-03-19T03:29:41.911Z,24.13
2019-03-19T03:32:12.376Z,26.10
2019-03-19T03:34:42.898Z,23.43
2019-03-19T03:37:13.354Z,25.60
2019-03-19T03:39:43.867Z,21.53
2019-03-19T03:42:14.342Z,23.13
2019-03-19T03:44:45.006Z,21.43
2019-03-19T03:47:15.521Z,23.27
2019-03-19T03:49:45.984Z,21.40
2019-03-19T03:52:16.482Z,22.90
2019-03-19T03:54:46.944Z,25.23
2019-03-19T03:57:17.433Z,27.80
2019-03-19T03:59:47.990Z,21.60
2019-03-19T04:02:18.479Z,21.47
2019-03-19T04:04:48.930Z,23.50
2019-03-19T04:07:19.537Z,23.47
2019-03-19T04:09:50.030Z,26.93
2019-03-19T04:12:20.477Z,25.77
2019-03-19T04:14:50.938Z,23.13
2019-03-19T04:17:21.383Z,22.97
2019-03-19T04:19:51.895Z,20.13
2019-03-19T04:22:22.350Z,25.37
2019-03-19T04:24:52.821Z,35.13
2019-03-19T04:27:23.385Z,25.33
2019-03-19T04:29:53.893Z,21.17
2019-03-19T04:32:24.360Z,27.80
2019-03-19T04:34:54.807Z,25.80
2019-03-19T04:37:25.317Z,20.20
2019-03-19T04:39:55.763Z,22.07
2019-03-19T04:42:26.275Z,19.50
2019-03-19T04:44:56.730Z,23.50
2019-03-19T04:47:27.232Z,24.73
2019-03-19T04:49:57.728Z,25.67
2019-03-19T04:52:28.193Z,18.87
2019-03-19T04:54:58.728Z,21.23
2019-03-19T04:57:29.193Z,16.50
2019-03-19T04:59:59.684Z,19.57
2019-03-19T05:02:30.157Z,16.87
2019-03-19T05:05:00.667Z,17.30
2019-03-19T05:07:31.129Z,17.17
2019-03-19T05:10:01.720Z,17.40
2019-03-19T05:12:32.215Z,23.33
2019-03-19T05:15:02.723Z,18.17
2019-03-19T05:17:33.186Z,16.77
2019-03-19T05:20:03.733Z,19.83
2019-03-19T05:22:34.225Z,26.83
2019-03-19T05:25:04.981Z,20.10
2019-03-19T05:27:37.564Z,20.27
2019-03-19T05:30:08.727Z,19.90
2019-03-19T05:32:39.281Z,18.90
2019-03-19T05:35:10.160Z,18.33
2019-03-19T05:37:40.672Z,21.17
2019-03-19T05:40:11.431Z,21.47
2019-03-19T05:42:41.952Z,25.50
2019-03-19T05:45:12.734Z,22.27
2019-03-19T05:47:43.485Z,20.23
2019-03-19T05:50:14.056Z,18.80
2019-03-19T05:52:44.618Z,21.30
2019-03-19T05:55:15.242Z,19.07
2019-03-19T05:57:49.788Z,19.23
2019-03-19T06:00:19.648Z,25.90
2019-03-19T06:02:50.150Z,22.03
2019-03-19T06:05:21.287Z,25.57
2019-03-19T06:07:52.110Z,25.97
2019-03-19T06:10:22.632Z,24.27
2019-03-19T06:12:53.138Z,24.37
2019-03-19T06:15:23.663Z,20.40
2019-03-19T06:17:54.038Z,25.67
2019-03-19T06:20:24.618Z,27.93
2019-03-19T06:22:55.095Z,23.47
2019-03-19T06:25:25.600Z,23.70
2019-03-19T06:28:00.607Z,22.90
2019-03-19T06:30:28.503Z,23.17
2019-03-19T06:32:58.974Z,25.03
2019-03-19T06:35:29.483Z,19.27
2019-03-19T06:37:59.937Z,33.37
2019-03-19T06:40:30.518Z,16.50
2019-03-19T06:43:01.028Z,21.63
2019-03-19T06:45:31.549Z,15.73
2019-03-19T06:48:02.065Z,16.47
2019-03-19T06:50:32.579Z,15.50
2019-03-19T06:53:03.118Z,14.97
2019-03-19T06:55:36.450Z,15.40
2019-03-19T06:58:11.085Z,16.37
2019-03-19T07:00:39.144Z,14.20
2019-03-19T07:03:09.620Z,14.90
2019-03-19T07:05:40.111Z,12.37
2019-03-19T07:08:10.602Z,15.33
2019-03-19T07:10:43.787Z,12.10
2019-03-19T07:13:14.277Z,12.30
2019-03-19T07:15:44.792Z,11.67
2019-03-19T07:18:15.442Z,13.53
2019-03-19T07:20:45.962Z,12.40
2019-03-19T07:23:16.817Z,15.13
2019-03-19T07:25:47.287Z,16.57
2019-03-19T07:28:21.962Z,13.47
2019-03-19T07:30:50.072Z,16.23
2019-03-19T07:33:20.745Z,14.63
2019-03-19T07:35:51.286Z,31.53
2019-03-19T07:38:21.818Z,18.10
2019-03-19T07:40:52.297Z,16.83
2019-03-19T07:43:23.006Z,25.00
2019-03-19T07:45:53.753Z,16.80
2019-03-19T07:48:24.253Z,15.53
2019-03-19T07:50:54.775Z,17.97
2019-03-19T07:53:25.353Z,19.10
2019-03-19T07:55:55.826Z,25.50
2019-03-19T07:58:36.125Z,19.93
2019-03-19T08:00:58.469Z,13.20
2019-03-19T08:03:29.058Z,13.03
2019-03-19T08:05:59.523Z,14.57
2019-03-19T08:08:30.038Z,20.47
2019-03-19T08:11:00.501Z,16.63
2019-03-19T08:13:31.008Z,12.90
2019-03-19T08:16:01.511Z,10.43
2019-03-19T08:18:31.975Z,10.53
2019-03-19T08:21:02.547Z,17.40
2019-03-19T08:23:33.076Z,11.67
2019-03-19T08:26:03.656Z,7.83
2019-03-19T08:28:34.216Z,8.30
2019-03-19T08:31:04.711Z,16.73
2019-03-19T08:33:35.225Z,13.60
2019-03-19T08:36:09.609Z,13.80
2019-03-19T08:38:38.192Z,12.40
2019-03-19T08:41:08.740Z,16.13
2019-03-19T08:43:39.206Z,8.23
2019-03-19T08:46:09.736Z,10.33
2019-03-19T08:48:40.187Z,17.00
2019-03-19T08:51:10.713Z,14.53
2019-03-19T08:53:41.218Z,20.47
2019-03-19T08:56:11.737Z,24.93
2019-03-19T08:58:42.258Z,17.47
2019-03-19T09:01:12.988Z,18.27
2019-03-19T09:03:43.462Z,8.07
2019-03-19T09:06:13.964Z,9.57
2019-03-19T09:08:44.421Z,20.57
2019-03-19T09:11:14.929Z,11.87
2019-03-19T09:13:45.405Z,13.30
2019-03-19T09:16:16.035Z,9.07
2019-03-19T09:18:46.499Z,6.67
2019-03-19T09:21:17.003Z,13.17
2019-03-19T09:23:47.523Z,9.30
2019-03-19T09:26:17.972Z,6.80
2019-03-19T09:28:48.481Z,18.63
2019-03-19T09:31:18.954Z,20.60
2019-03-19T09:33:49.487Z,14.37
2019-03-19T09:36:19.984Z,16.73
2019-03-19T09:38:50.525Z,9.53
2019-03-19T09:41:21.031Z,9.63
2019-03-19T09:43:53.439Z,10.73
2019-03-19T09:46:23.713Z,16.73
2019-03-19T09:48:54.185Z,6.43
2019-03-19T09:51:24.696Z,6.33
2019-03-19T09:53:55.210Z,6.87
2019-03-19T09:56:25.674Z,7.83
2019-03-19T09:58:56.196Z,10.03
2019-03-19T10:01:26.679Z,8.07
2019-03-19T10:03:57.141Z,9.23
2019-03-19T10:06:27.631Z,8.83
2019-03-19T10:08:58.120Z,8.43
2019-03-19T10:11:28.584Z,8.63
2019-03-19T10:13:59.061Z,7.57
2019-03-19T10:16:29.566Z,9.33
2019-03-19T10:19:00.093Z,10.00
2019-03-19T10:21:30.556Z,8.40
2019-03-19T10:24:01.063Z,9.33
2019-03-19T10:26:31.535Z,7.97
2019-03-19T10:29:02.000Z,10.87
2019-03-19T10:31:34.644Z,8.47
2019-03-19T10:34:05.132Z,6.83
2019-03-19T10:36:35.735Z,6.37
2019-03-19T10:39:09.201Z,13.40
2019-03-19T10:41:39.786Z,9.73
2019-03-19T10:44:13.109Z,12.97
2019-03-19T10:46:43.568Z,22.30
2019-03-19T10:49:14.074Z,8.07
2019-03-19T10:51:44.531Z,6.93
2019-03-19T10:54:15.150Z,10.20
2019-03-19T10:56:46.273Z,14.07
2019-03-19T10:59:16.776Z,6.33
2019-03-19T11:01:47.281Z,11.87
2019-03-19T11:04:17.746Z,7.30
2019-03-19T11:06:48.254Z,7.77
2019-03-19T11:09:18.720Z,6.97
2019-03-19T11:11:49.212Z,5.93
2019-03-19T11:14:19.704Z,5.97
2019-03-19T11:16:50.311Z,6.93
2019-03-19T11:19:20.779Z,8.43
2019-03-19T11:21:51.310Z,6.47
2019-03-19T11:24:21.766Z,10.13
2019-03-19T11:26:52.260Z,6.33
2019-03-19T11:29:22.783Z,7.87
2019-03-19T11:31:53.294Z,8.53
2019-03-19T11:34:23.911Z,7.53
2019-03-19T11:36:58.017Z,8.83
2019-03-19T11:39:26.604Z,6.00
2019-03-19T11:41:57.111Z,9.30
2019-03-19T11:44:27.599Z,11.93
2019-03-19T11:46:58.054Z,8.13
2019-03-19T11:49:28.551Z,8.87
2019-03-19T11:51:59.265Z,7.53
2019-03-19T11:54:29.766Z,7.43
2019-03-19T11:57:00.311Z,6.37
2019-03-19T11:59:30.774Z,8.97
2019-03-19T12:02:01.265Z,7.53
2019-03-19T12:04:31.893Z,6.30
2019-03-19T12:07:02.414Z,11.10
2019-03-19T12:09:32.888Z,10.70
2019-03-19T12:12:03.392Z,6.50
2019-03-19T12:14:33.891Z,5.73
2019-03-19T12:17:04.403Z,6.60
2019-03-19T12:19:34.871Z,6.43
2019-03-19T12:22:05.475Z,10.13
2019-03-19T12:24:35.950Z,7.90
2019-03-19T12:27:06.424Z,8.03
2019-03-19T12:29:36.924Z,7.57
2019-03-19T12:32:07.393Z,9.33
2019-03-19T12:34:37.874Z,6.60
2019-03-19T12:37:08.388Z,5.97
2019-03-19T12:39:38.893Z,8.17
2019-03-19T12:42:09.417Z,6.03
2019-03-19T12:44:39.880Z,5.73
2019-03-19T12:47:10.452Z,6.20
2019-03-19T12:49:40.907Z,7.23
2019-03-19T12:52:11.412Z,6.00
2019-03-19T12:54:41.860Z,9.23
2019-03-19T12:57:13.316Z,7.50
2019-03-19T12:59:44.011Z,6.07
2019-03-19T13:02:14.533Z,8.57
2019-03-19T13:04:45.059Z,6.90
2019-03-19T13:07:15.525Z,7.43
2019-03-19T13:09:46.042Z,9.00
2019-03-19T13:12:16.624Z,6.20
2019-03-19T13:14:47.220Z,9.77
2019-03-19T13:17:17.692Z,7.17
2019-03-19T13:19:48.197Z,9.03
2019-03-19T13:22:18.663Z,7.13
2019-03-19T13:24:49.175Z,7.90
2019-03-19T13:27:19.705Z,8.57
2019-03-19T13:29:50.153Z,7.00
2019-03-19T13:32:20.645Z,7.27
2019-03-19T13:34:51.147Z,8.87
2019-03-19T13:37:21.613Z,8.00
2019-03-19T13:39:52.165Z,8.13
2019-03-19T13:42:22.730Z,6.43
2019-03-19T13:44:53.260Z,10.13
2019-03-19T13:47:23.842Z,13.73
2019-03-19T13:49:54.312Z,6.90
2019-03-19T13:52:25.100Z,7.57
2019-03-19T13:54:55.586Z,6.87
2019-03-19T13:57:30.638Z,8.83
2019-03-19T14:00:01.142Z,6.50
2019-03-19T14:02:37.720Z,9.90
2019-03-19T14:05:13.217Z,9.87
2019-03-19T14:08:19.707Z,6.97
2019-03-19T14:10:50.181Z,7.70
2019-03-19T14:13:25.717Z,9.63
2019-03-19T14:16:19.672Z,5.93
2019-03-19T14:19:34.352Z,5.97
2019-03-19T14:22:45.016Z,7.97
2019-03-19T14:25:39.412Z,5.67
2019-03-19T14:28:10.206Z,10.63
2019-03-19T14:31:18.561Z,6.67
2019-03-19T14:34:33.112Z,10.60
2019-03-19T14:37:27.974Z,7.47
2019-03-19T14:40:21.158Z,8.30
2019-03-19T14:42:51.953Z,11.53
2019-03-19T14:45:23.371Z,7.30
2019-03-19T14:47:53.880Z,6.00
2019-03-19T14:50:24.355Z,6.53
2019-03-19T14:52:54.917Z,7.00
2019-03-19T14:55:25.535Z,7.97
2019-03-19T14:57:56.246Z,7.40
2019-03-19T15:00:26.757Z,7.70
2019-03-19T15:02:57.220Z,7.47
2019-03-19T15:05:27.735Z,8.13
2019-03-19T15:07:58.212Z,5.57
2019-03-19T15:10:28.707Z,5.80
2019-03-19T15:12:59.380Z,6.33
2019-03-19T15:16:34.368Z,5.30
2019-03-19T15:19:35.943Z,5.70
2019-03-19T15:23:06.768Z,8.87
2019-03-19T15:26:13.413Z,7.30
2019-03-19T15:28:43.918Z,7.80
2019-03-19T15:31:14.425Z,6.37
2019-03-19T15:33:44.923Z,6.30
2019-03-19T15:36:15.476Z,7.17
2019-03-19T15:38:45.948Z,5.03
2019-03-19T15:41:16.455Z,5.60
2019-03-19T15:44:07.788Z,5.10
2019-03-19T15:46:38.288Z,5.70
2019-03-19T15:49:08.793Z,6.57
2019-03-19T15:51:39.419Z,5.27
2019-03-19T15:54:09.884Z,5.27
2019-03-19T15:56:40.409Z,7.17
2019-03-19T15:59:10.929Z,6.87
2019-03-19T16:01:41.429Z,6.33
2019-03-19T16:04:11.934Z,9.30
2019-03-19T16:06:42.447Z,5.73
2019-03-19T16:09:12.909Z,7.37
2019-03-19T16:11:43.399Z,4.53
2019-03-19T16:14:13.849Z,6.40
2019-03-19T16:16:44.339Z,8.63
2019-03-19T16:19:14.779Z,11.77
2019-03-19T16:21:47.483Z,12.27
2019-03-19T16:24:17.424Z,9.63
2019-03-19T16:26:47.902Z,8.67
2019-03-19T16:29:21.919Z,6.40
2019-03-19T16:32:09.852Z,9.80
2019-03-19T16:34:43.080Z,6.33
2019-03-19T16:37:37.836Z,9.83
2019-03-19T16:40:38.432Z,7.83
2019-03-19T16:43:54.196Z,6.70
2019-03-19T16:47:12.635Z,7.50
2019-03-19T16:49:53.243Z,6.80
2019-03-19T16:53:08.250Z,6.70
2019-03-19T16:55:39.779Z,5.63
2019-03-19T16:58:10.245Z,7.17
2019-03-19T17:00:40.708Z,7.83
2019-03-19T17:03:11.224Z,11.70
2019-03-19T17:05:41.684Z,8.90
2019-03-19T17:08:12.179Z,7.17
2019-03-19T17:10:42.681Z,8.47
2019-03-19T17:13:13.183Z,10.97
2019-03-19T17:15:43.638Z,8.00
2019-03-19T17:18:14.137Z,8.97
2019-03-19T17:20:44.598Z,6.60
2019-03-19T17:23:15.094Z,7.37
2019-03-19T17:25:45.548Z,6.63
2019-03-19T17:28:22.517Z,11.90
2019-03-19T17:30:48.234Z,6.97
2019-03-19T17:33:18.727Z,6.20
2019-03-19T17:35:49.229Z,5.77
2019-03-19T17:38:19.730Z,5.37
2019-03-19T17:40:50.312Z,5.70
2019-03-19T17:43:20.803Z,7.50
2019-03-19T17:45:51.259Z,8.80
2019-03-19T17:48:21.746Z,5.20
2019-03-19T17:50:53.030Z,10.97
2019-03-19T17:53:23.523Z,5.07
2019-03-19T17:55:56.363Z,4.93
2019-03-19T17:58:26.860Z,5.43
2019-03-19T18:00:57.375Z,5.43
2019-03-19T18:03:27.837Z,4.87
2019-03-19T18:05:58.450Z,5.23
2019-03-19T18:08:28.934Z,4.27
2019-03-19T18:10:59.456Z,4.60
2019-03-19T18:13:29.923Z,4.93
2019-03-19T18:16:00.424Z,4.80
2019-03-19T18:18:30.970Z,4.73
2019-03-19T18:21:01.380Z,4.13
2019-03-19T18:23:32.006Z,4.80
2019-03-19T18:26:02.502Z,5.13
2019-03-19T18:28:33.011Z,5.10
2019-03-19T18:31:03.510Z,6.63
2019-03-19T18:33:33.960Z,5.80
2019-03-19T18:36:04.560Z,6.03
2019-03-19T18:38:35.025Z,7.13
2019-03-19T18:41:05.800Z,6.47
2019-03-19T18:43:36.296Z,6.63
2019-03-19T18:46:06.748Z,5.50
2019-03-19T18:48:37.246Z,5.97
2019-03-19T18:51:07.701Z,5.77
2019-03-19T18:53:38.195Z,8.60
2019-03-19T18:56:08.685Z,5.40
2019-03-19T18:58:39.185Z,7.70
2019-03-19T19:01:09.691Z,6.43
2019-03-19T19:03:40.450Z,6.70
2019-03-19T19:06:10.979Z,6.50
2019-03-19T19:08:41.451Z,8.73
2019-03-19T19:11:11.966Z,7.57
2019-03-19T19:13:42.426Z,8.17
2019-03-19T19:16:12.941Z,10.23
2019-03-19T19:18:49.181Z,8.27
2019-03-19T19:22:23.869Z,5.90
2019-03-19T19:25:36.408Z,5.90
2019-03-19T19:28:40.453Z,5.90
2019-03-19T19:31:10.953Z,8.50
2019-03-19T19:33:41.407Z,6.33
2019-03-19T19:36:11.906Z,7.67
2019-03-19T19:38:42.381Z,8.50
2019-03-19T19:41:12.893Z,7.93
2019-03-19T19:43:43.356Z,6.53
2019-03-19T19:46:13.850Z,6.47
2019-03-19T19:48:44.309Z,6.33
2019-03-19T19:51:14.815Z,6.70
2019-03-19T19:53:45.270Z,7.17
2019-03-19T19:56:15.784Z,7.10
2019-03-19T19:58:46.276Z,7.57
2019-03-19T20:01:16.744Z,9.30
2019-03-19T20:03:47.256Z,7.80
2019-03-19T20:06:17.719Z,8.20
2019-03-19T20:08:48.250Z,7.87
2019-03-19T20:11:18.690Z,7.17
2019-03-19T20:13:49.201Z,8.10
2019-03-19T20:16:19.683Z,8.20
2019-03-19T20:18:50.207Z,8.70
2019-03-19T20:21:20.672Z,5.83
2019-03-19T20:23:51.200Z,6.33
2019-03-19T20:26:21.663Z,6.03
2019-03-19T20:28:52.160Z,5.27
2019-03-19T20:31:22.626Z,5.10
2019-03-19T20:33:53.123Z,5.37
2019-03-19T20:36:23.601Z,4.40
2019-03-19T20:38:54.056Z,5.03
2019-03-19T20:41:24.530Z,5.33
2019-03-19T20:43:55.028Z,5.70
2019-03-19T20:46:25.542Z,4.73
2019-03-19T20:48:56.017Z,5.43
2019-03-19T20:51:26.609Z,5.30
2019-03-19T20:53:57.071Z,5.60
2019-03-19T20:56:27.562Z,5.30
2019-03-19T20:58:58.057Z,5.73
2019-03-19T21:01:28.570Z,6.03
2019-03-19T21:03:59.028Z,6.00
2019-03-19T21:06:29.493Z,5.53
2019-03-19T21:09:00.008Z,5.33
2019-03-19T21:11:30.472Z,5.60
2019-03-19T21:14:00.990Z,4.70
2019-03-19T21:16:31.445Z,4.90
2019-03-19T21:19:01.904Z,5.10
2019-03-19T21:21:32.399Z,4.97
2019-03-19T21:24:02.844Z,4.87
2019-03-19T21:26:33.344Z,4.70
2019-03-19T21:29:03.801Z,4.67
2019-03-19T21:31:34.313Z,4.63
2019-03-19T21:34:04.773Z,4.77
2019-03-19T21:36:35.248Z,4.87
2019-03-19T21:39:07.851Z,4.37
2019-03-19T21:41:38.424Z,4.30
2019-03-19T21:44:08.957Z,4.93
2019-03-19T21:46:39.453Z,5.10
2019-03-19T21:49:09.912Z,5.63
2019-03-19T21:51:40.420Z,4.87
2019-03-19T21:54:10.891Z,4.80
2019-03-19T21:56:41.367Z,4.53
2019-03-19T21:59:11.872Z,5.00
2019-03-19T22:01:42.339Z,4.47
2019-03-19T22:04:12.842Z,4.40
2019-03-19T22:06:43.329Z,4.53
2019-03-19T22:09:13.829Z,4.80
2019-03-19T22:11:44.321Z,4.47
2019-03-19T22:14:14.767Z,4.00
2019-03-19T22:16:45.270Z,4.43
2019-03-19T22:19:15.770Z,4.60
2019-03-19T22:21:46.221Z,4.47
2019-03-19T22:24:16.729Z,3.97
2019-03-19T22:26:47.188Z,4.70
2019-03-19T22:29:17.696Z,4.57
2019-03-19T22:31:48.357Z,4.47
2019-03-19T22:34:18.826Z,4.23
2019-03-19T22:36:49.293Z,4.10
2019-03-19T22:39:19.774Z,4.30
2019-03-19T22:41:50.304Z,4.17
2019-03-19T22:44:20.773Z,4.53
2019-03-19T22:46:51.256Z,4.77
2019-03-19T23:48:20.308Z,8.87
2019-03-19T23:50:50.804Z,8.77
2019-03-19T23:53:21.284Z,8.87
2019-03-19T23:55:51.755Z,9.40
2019-03-19T23:58:22.265Z,10.53
